Time;durP1;ratioP1;P1;durP2;ratioP2;P2;SDS_P1;SDS_P2;PMS_P1;PMS_P2;Temp;Humidity;BMP_temperature;BMP_pressure;BME280_temperature;BME280_humidity;BME280_pressure;Samples;Min_cycle;Max_cycle;Signal;HPM_P1;HPM_P2
2021/03/31 00:01:15;;;;;;;3.63;1.47;;;9.40;91.30;;;;;;5095850;28;20179;-68
2021/03/31 00:03:40;;;;;;;3.43;1.30;;;9.30;91.70;;;;;;5094907;28;20556;-69
2021/03/31 00:06:06;;;;;;;5.00;1.07;;;9.40;92.30;;;;;;5095310;28;20275;-67
2021/03/31 00:08:32;;;;;;;4.80;1.30;;;9.40;92.00;;;;;;5096590;28;20524;-66
2021/03/31 00:11:00;;;;;;;5.93;1.63;;;9.40;92.00;;;;;;5095863;28;20666;-67
2021/03/31 00:13:26;;;;;;;4.93;1.60;;;9.40;92.10;;;;;;5096193;28;20168;-68
2021/03/31 00:15:53;;;;;;;5.13;1.58;;;9.40;92.30;;;;;;5095398;28;20198;-68
2021/03/31 00:18:20;;;;;;;3.20;1.20;;;9.30;92.40;;;;;;5095862;28;20207;-69
2021/03/31 00:20:47;;;;;;;5.03;1.65;;;9.20;92.90;;;;;;5095288;28;20164;-69
2021/03/31 00:23:14;;;;;;;3.10;1.10;;;9.20;93.30;;;;;;5095725;28;20175;-69
2021/03/31 00:25:41;;;;;;;5.13;1.52;;;9.10;93.50;;;;;;5095236;28;20188;-68
2021/03/31 00:28:08;;;;;;;4.32;1.33;;;9.10;94.20;;;;;;5094201;28;20186;-68
2021/03/31 00:30:34;;;;;;;4.40;1.45;;;9.10;94.30;;;;;;5095537;28;20168;-68
2021/03/31 00:33:00;;;;;;;3.97;1.50;;;9.10;94.50;;;;;;5095574;28;20174;-68
2021/03/31 00:35:26;;;;;;;6.45;2.33;;;9.00;94.60;;;;;;5095025;28;20780;-69
2021/03/31 00:37:52;;;;;;;3.90;1.20;;;9.00;94.80;;;;;;5095516;28;20203;-68
2021/03/31 00:40:19;;;;;;;3.47;1.13;;;8.90;95.10;;;;;;5095611;28;20244;-69
2021/03/31 00:42:46;;;;;;;3.00;0.82;;;8.90;95.30;;;;;;5095039;28;20461;-68
2021/03/31 00:45:13;;;;;;;3.17;1.25;;;8.90;95.60;;;;;;5094734;28;20193;-68
2021/03/31 00:47:39;;;;;;;3.45;1.10;;;8.90;95.90;;;;;;5095041;28;20233;-66
2021/03/31 00:50:08;;;;;;;3.70;1.20;;;8.90;96.10;;;;;;5094073;28;20173;-68
2021/03/31 00:52:34;;;;;;;6.95;1.70;;;8.80;96.40;;;;;;5095162;28;20237;-69
2021/03/31 00:55:00;;;;;;;6.05;1.92;;;8.70;96.60;;;;;;5094817;28;20177;-68
2021/03/31 00:57:27;;;;;;;3.73;1.30;;;8.70;96.90;;;;;;5094765;28;20198;-68
2021/03/31 00:59:52;;;;;;;4.38;2.30;;;8.60;97.30;;;;;;5094848;28;20753;-68
2021/03/31 01:02:18;;;;;;;4.00;1.90;;;8.60;97.70;;;;;;5093517;28;20168;-68
2021/03/31 01:04:43;;;;;;;3.53;1.33;;;8.60;98.00;;;;;;5094333;28;20235;-68
2021/03/31 01:07:09;;;;;;;3.73;0.90;;;8.50;98.30;;;;;;5094731;28;20205;-69
2021/03/31 01:09:35;;;;;;;5.17;1.90;;;8.50;98.60;;;;;;5093395;28;20209;-69
2021/03/31 01:12:19;;;;;;;3.28;1.45;;;8.40;98.90;;;;;;5094592;28;20176;-68
2021/03/31 01:15:10;;;;;;;4.22;1.75;;;8.40;99.00;;;;;;5094457;28;20164;-68
2021/03/31 01:17:54;;;;;;;5.05;1.40;;;8.30;99.20;;;;;;5094186;28;20211;-69
2021/03/31 01:20:52;;;;;;;4.32;1.90;;;8.20;99.90;;;;;;5094896;28;20174;-69
2021/03/31 01:24:01;;;;;;;3.50;1.30;;;8.20;99.90;;;;;;5094154;28;20233;-68
2021/03/31 01:26:48;;;;;;;4.75;1.27;;;8.20;99.90;;;;;;5094455;28;20212;-68
2021/03/31 01:29:33;;;;;;;3.40;1.23;;;8.10;99.90;;;;;;5076871;28;20177;-69
2021/03/31 01:32:32;;;;;;;3.67;1.77;;;8.00;99.90;;;;;;5093902;28;20175;-66
2021/03/31 01:35:05;;;;;;;5.40;1.35;;;8.00;99.90;;;;;;5092848;28;20168;-67
2021/03/31 01:37:36;;;;;;;3.95;1.65;;;7.90;99.90;;;;;;5094204;28;20579;-67
2021/03/31 01:40:06;;;;;;;4.20;1.73;;;7.90;99.90;;;;;;5093559;28;20164;-68
2021/03/31 01:42:35;;;;;;;4.47;1.52;;;7.90;99.90;;;;;;5094234;28;20172;-68
2021/03/31 01:45:05;;;;;;;3.83;1.15;;;7.90;99.90;;;;;;5092127;28;20271;-68
2021/03/31 01:47:38;;;;;;;3.53;1.10;;;7.90;99.90;;;;;;5092455;28;20260;-69
2021/03/31 01:50:08;;;;;;;3.80;1.25;;;8.00;99.90;;;;;;5094073;28;20184;-68
2021/03/31 01:52:35;;;;;;;3.67;1.38;;;7.90;99.90;;;;;;5093840;28;20640;-67
2021/03/31 01:55:04;;;;;;;4.63;1.63;;;7.90;99.90;;;;;;5093234;28;20253;-68
2021/03/31 01:57:31;;;;;;;3.55;1.38;;;7.90;99.90;;;;;;5093734;28;20268;-66
2021/03/31 01:59:58;;;;;;;5.43;2.00;;;7.80;99.90;;;;;;5093751;28;20603;-66
2021/03/31 02:02:24;;;;;;;3.20;0.80;;;7.80;99.90;;;;;;5093863;28;20172;-69
2021/03/31 02:04:50;;;;;;;3.80;1.20;;;7.70;99.90;;;;;;5092687;28;20178;-67
2021/03/31 02:07:19;;;;;;;5.63;1.20;;;7.70;99.90;;;;;;5092521;28;20194;-67
2021/03/31 02:09:48;;;;;;;4.85;1.27;;;7.70;99.90;;;;;;5093758;28;20170;-70
2021/03/31 02:12:17;;;;;;;6.22;2.70;;;7.60;99.90;;;;;;5093799;28;20180;-68
2021/03/31 02:14:46;;;;;;;3.72;1.48;;;7.50;99.90;;;;;;5091401;28;20651;-69
2021/03/31 02:17:16;;;;;;;3.80;1.20;;;7.40;99.90;;;;;;5093465;28;20566;-68
2021/03/31 02:19:43;;;;;;;5.40;1.83;;;7.40;99.90;;;;;;5092338;28;20597;-70
2021/03/31 02:22:10;;;;;;;3.63;1.00;;;7.40;99.90;;;;;;5093513;28;20515;-67
2021/03/31 02:24:37;;;;;;;3.53;0.88;;;7.40;99.90;;;;;;5092932;28;20350;-66
2021/03/31 02:27:04;;;;;;;8.50;1.77;;;7.40;99.90;;;;;;5092239;28;20276;-66
2021/03/31 02:29:30;;;;;;;3.38;1.02;;;7.40;99.90;;;;;;5093284;28;20637;-66
2021/03/31 02:31:58;;;;;;;4.67;1.70;;;7.40;99.90;;;;;;5093205;28;20207;-67
2021/03/31 02:34:24;;;;;;;5.18;1.25;;;7.40;99.90;;;;;;5093135;28;20599;-66
2021/03/31 02:36:51;;;;;;;5.18;1.77;;;7.30;99.90;;;;;;5092820;28;20639;-66
2021/03/31 02:39:19;;;;;;;3.10;0.68;;;7.30;99.90;;;;;;5093412;28;20184;-67
2021/03/31 02:41:49;;;;;;;4.45;1.42;;;7.30;99.90;;;;;;5093035;28;20179;-69
2021/03/31 02:44:18;;;;;;;5.00;1.60;;;7.20;99.90;;;;;;5093237;28;20166;-67
2021/03/31 02:46:45;;;;;;;8.55;1.70;;;7.20;99.90;;;;;;5092754;28;20196;-66
2021/03/31 02:49:11;;;;;;;3.70;1.27;;;7.10;99.90;;;;;;5093230;28;20547;-66
2021/03/31 02:51:38;;;;;;;3.45;1.08;;;7.10;99.90;;;;;;5094631;28;20179;-67
2021/03/31 02:54:09;;;;;;;4.88;1.70;;;7.00;99.90;;;;;;5097259;28;20226;-68
2021/03/31 02:56:37;;;;;;;3.67;1.35;;;7.00;99.90;;;;;;5095344;28;20261;-67
2021/03/31 02:59:04;;;;;;;4.00;1.75;;;7.00;99.90;;;;;;5097433;28;20555;-67
2021/03/31 03:01:29;;;;;;;3.13;0.70;;;6.90;99.90;;;;;;5097201;28;20650;-68
2021/03/31 03:03:56;;;;;;;4.07;1.93;;;6.90;99.90;;;;;;5097044;28;20171;-68
2021/03/31 03:06:26;;;;;;;5.43;2.05;;;6.90;99.90;;;;;;5096811;28;20257;-68
2021/03/31 03:08:55;;;;;;;3.25;0.93;;;6.90;99.90;;;;;;5097422;28;20172;-68
2021/03/31 03:11:22;;;;;;;4.72;1.63;;;6.90;99.90;;;;;;5095451;28;20179;-66
2021/03/31 03:13:49;;;;;;;4.00;1.23;;;6.80;99.90;;;;;;5096907;28;20176;-68
2021/03/31 03:16:15;;;;;;;3.53;1.20;;;6.80;99.90;;;;;;5096514;28;20644;-67
2021/03/31 03:18:42;;;;;;;4.28;1.25;;;6.80;99.90;;;;;;5096964;28;20211;-68
2021/03/31 03:21:10;;;;;;;4.03;1.20;;;6.80;99.90;;;;;;5096851;28;20187;-67
2021/03/31 03:23:37;;;;;;;3.30;0.95;;;6.70;99.90;;;;;;5096945;28;20164;-67
2021/03/31 03:26:03;;;;;;;10.23;2.10;;;6.70;99.90;;;;;;5095756;28;20668;-67
2021/03/31 03:28:31;;;;;;;4.72;1.63;;;6.70;99.90;;;;;;5095320;28;20204;-67
2021/03/31 03:30:58;;;;;;;3.75;1.40;;;6.60;99.90;;;;;;5096903;28;20291;-67
2021/03/31 03:33:25;;;;;;;5.60;0.93;;;6.60;99.90;;;;;;5096860;28;20208;-67
2021/03/31 03:35:51;;;;;;;3.28;0.80;;;6.70;99.90;;;;;;5096111;28;20196;-67
2021/03/31 03:38:17;;;;;;;3.90;1.30;;;6.60;99.90;;;;;;5095431;28;20297;-68
2021/03/31 03:40:45;;;;;;;3.70;1.10;;;6.60;99.90;;;;;;5094707;28;20406;-67
2021/03/31 03:43:14;;;;;;;3.72;1.05;;;6.50;99.90;;;;;;5096565;28;20233;-68
2021/03/31 03:45:42;;;;;;;3.88;1.48;;;6.50;99.90;;;;;;5095461;28;20193;-68
2021/03/31 03:48:08;;;;;;;5.38;1.80;;;6.50;99.90;;;;;;5096622;28;20183;-68
2021/03/31 03:50:34;;;;;;;3.30;0.70;;;6.40;99.90;;;;;;5096110;28;20172;-66
2021/03/31 03:53:00;;;;;;;3.70;1.20;;;6.40;99.90;;;;;;5096315;28;20495;-68
2021/03/31 03:55:26;;;;;;;4.03;1.25;;;6.40;99.90;;;;;;5093896;28;20279;-67
2021/03/31 03:57:53;;;;;;;3.95;1.33;;;6.40;99.90;;;;;;5096227;28;20195;-67
2021/03/31 04:00:21;;;;;;;4.97;1.80;;;6.40;99.90;;;;;;5096152;28;20220;-68
2021/03/31 04:02:56;;;;;;;3.50;0.85;;;6.40;99.90;;;;;;5094377;28;20310;-67
2021/03/31 04:05:24;;;;;;;3.88;1.27;;;6.40;99.90;;;;;;5095468;28;20195;-68
2021/03/31 04:07:50;;;;;;;3.92;0.98;;;6.40;99.90;;;;;;5096305;28;20217;-67
2021/03/31 04:10:18;;;;;;;4.20;1.80;;;6.40;99.90;;;;;;5095839;28;20176;-68
2021/03/31 04:12:45;;;;;;;3.50;0.90;;;6.40;99.90;;;;;;5094837;28;20175;-68
2021/03/31 04:15:12;;;;;;;4.25;1.55;;;6.30;99.90;;;;;;5094918;28;20208;-67
2021/03/31 04:17:41;;;;;;;3.60;1.02;;;6.30;99.90;;;;;;5095749;28;20211;-66
2021/03/31 04:20:12;;;;;;;4.47;1.50;;;6.20;99.90;;;;;;5095640;28;20180;-68
2021/03/31 04:22:38;;;;;;;3.50;1.10;;;6.20;99.90;;;;;;5095479;28;20164;-67
2021/03/31 04:25:05;;;;;;;3.70;1.30;;;6.20;99.90;;;;;;5095234;28;20616;-68
2021/03/31 04:27:31;;;;;;;3.35;0.65;;;6.20;99.90;;;;;;5095864;28;20585;-69
2021/03/31 04:29:59;;;;;;;3.47;0.83;;;6.20;99.90;;;;;;5095579;28;20164;-69
2021/03/31 04:32:26;;;;;;;3.50;0.82;;;6.20;99.90;;;;;;5095735;28;20445;-68
2021/03/31 04:34:52;;;;;;;3.78;1.45;;;6.20;99.90;;;;;;5094624;28;20175;-68
2021/03/31 04:37:17;;;;;;;4.23;1.43;;;6.30;99.90;;;;;;5093920;28;20211;-68
2021/03/31 04:39:43;;;;;;;3.20;0.60;;;6.20;99.90;;;;;;5095230;28;20418;-67
2021/03/31 04:42:10;;;;;;;8.97;1.47;;;6.20;99.90;;;;;;5095555;28;20668;-69
2021/03/31 04:44:35;;;;;;;3.72;1.25;;;6.20;99.90;;;;;;5094838;28;20414;-68
2021/03/31 04:47:02;;;;;;;4.87;1.77;;;6.20;99.90;;;;;;5095366;28;20207;-68
2021/03/31 04:49:28;;;;;;;3.40;0.93;;;6.20;99.90;;;;;;5094399;28;20182;-67
2021/03/31 04:51:53;;;;;;;4.47;1.93;;;6.10;99.90;;;;;;5093707;28;20187;-67
2021/03/31 04:54:19;;;;;;;3.63;1.03;;;6.10;99.90;;;;;;5094782;28;20180;-68
2021/03/31 04:56:45;;;;;;;4.20;1.35;;;6.10;99.90;;;;;;5095232;28;20282;-67
2021/03/31 04:59:11;;;;;;;4.60;1.73;;;6.10;99.90;;;;;;5094875;28;20247;-69
2021/03/31 05:01:37;;;;;;;5.50;2.50;;;6.20;99.90;;;;;;5095039;28;20164;-68
2021/03/31 05:04:02;;;;;;;6.53;1.80;;;6.10;99.90;;;;;;5093027;28;20515;-68
2021/03/31 05:06:28;;;;;;;4.87;2.63;;;6.10;99.90;;;;;;5094998;28;20283;-68
2021/03/31 05:08:54;;;;;;;5.30;2.23;;;6.10;99.90;;;;;;5094646;28;20454;-69
2021/03/31 05:11:19;;;;;;;3.90;1.30;;;6.20;99.90;;;;;;5093268;28;20172;-68
2021/03/31 05:13:45;;;;;;;4.00;1.67;;;6.20;99.90;;;;;;5092708;28;20172;-68
2021/03/31 05:16:11;;;;;;;3.73;0.93;;;6.30;99.90;;;;;;5094460;28;20196;-67
2021/03/31 05:18:36;;;;;;;4.03;1.20;;;6.40;99.90;;;;;;5094617;28;20207;-67
2021/03/31 05:21:03;;;;;;;3.40;0.63;;;6.50;99.90;;;;;;5092951;28;20706;-68
2021/03/31 05:23:28;;;;;;;4.40;1.40;;;6.60;99.90;;;;;;5093392;28;20254;-68
2021/03/31 05:25:55;;;;;;;3.80;1.17;;;6.80;99.90;;;;;;5093490;28;20280;-67
2021/03/31 05:28:23;;;;;;;5.68;1.67;;;7.10;99.90;;;;;;5094713;28;20221;-66
2021/03/31 05:30:49;;;;;;;6.00;2.20;;;7.30;99.90;;;;;;5093167;28;20899;-67
2021/03/31 05:33:15;;;;;;;6.03;2.53;;;7.60;99.90;;;;;;5094019;28;20461;-74
2021/03/31 05:35:40;;;;;;;5.40;1.93;;;7.90;99.90;;;;;;5092253;28;20679;-66
2021/03/31 05:38:06;;;;;;;4.20;1.80;;;8.20;99.90;;;;;;5094431;28;20201;-67
2021/03/31 05:40:32;;;;;;;5.57;1.97;;;8.30;99.90;;;;;;5085730;28;20178;-71
2021/03/31 05:42:59;;;;;;;4.47;1.30;;;8.40;99.90;;;;;;5087545;28;20271;-67
2021/03/31 05:45:28;;;;;;;7.97;1.23;;;8.40;99.90;;;;;;5091268;28;20188;-66
2021/03/31 05:47:54;;;;;;;5.28;1.25;;;8.40;99.90;;;;;;5093985;28;20160;-67
2021/03/31 05:50:20;;;;;;;5.53;2.13;;;8.40;99.90;;;;;;5093787;28;20188;-67
2021/03/31 05:52:46;;;;;;;4.13;1.03;;;8.50;99.90;;;;;;5094118;28;20410;-68
2021/03/31 05:55:15;;;;;;;4.40;2.20;;;8.70;99.90;;;;;;5093280;28;20463;-70
2021/03/31 05:57:41;;;;;;;4.03;1.25;;;8.90;99.90;;;;;;5093599;28;20616;-66
2021/03/31 06:00:16;;;;;;;5.00;1.50;;;9.00;99.90;;;;;;5091142;28;20630;-67
2021/03/31 06:02:44;;;;;;;4.07;1.30;;;9.00;99.90;;;;;;5093841;28;20167;-66
2021/03/31 06:05:15;;;;;;;9.98;2.30;;;9.10;99.90;;;;;;5071951;28;20173;-66
2021/03/31 06:07:42;;;;;;;4.45;1.40;;;9.20;99.90;;;;;;5076593;28;20179;-66
2021/03/31 06:10:11;;;;;;;4.28;1.50;;;9.40;99.90;;;;;;5093115;28;20539;-65
2021/03/31 06:12:43;;;;;;;3.95;1.17;;;9.70;99.90;;;;;;5093229;28;20164;-66
2021/03/31 06:15:09;;;;;;;5.88;2.42;;;10.00;99.20;;;;;;5092635;28;20241;-66
2021/03/31 06:17:51;;;;;;;5.60;2.30;;;10.30;98.80;;;;;;5091831;28;20199;-65
2021/03/31 06:20:59;;;;;;;5.72;2.20;;;10.50;97.50;;;;;;5091595;28;20168;-68
2021/03/31 06:23:46;;;;;;;6.63;2.38;;;10.60;97.30;;;;;;5008912;28;20276;-65
2021/03/31 06:26:24;;;;;;;5.78;2.10;;;10.90;96.90;;;;;;5089180;28;20204;-67
2021/03/31 06:29:01;;;;;;;11.05;3.08;;;11.20;96.50;;;;;;5091633;28;20172;-67
2021/03/31 06:31:35;;;;;;;5.97;2.22;;;11.50;95.70;;;;;;5091596;28;20171;-68
2021/03/31 06:34:06;;;;;;;5.57;2.47;;;11.70;95.50;;;;;;5091859;28;20171;-67
2021/03/31 06:36:36;;;;;;;7.88;2.35;;;12.20;94.70;;;;;;5092996;28;20188;-69
2021/03/31 06:39:18;;;;;;;5.75;2.92;;;12.40;94.00;;;;;;5093294;28;20190;-66
2021/03/31 06:41:54;;;;;;;6.00;2.87;;;12.80;93.40;;;;;;5092640;28;20179;-69
2021/03/31 06:44:36;;;;;;;11.43;2.83;;;13.20;93.00;;;;;;5092884;28;20407;-68
2021/03/31 06:49:33;;;;;;;7.30;3.40;;;13.80;91.20;;;;;;5093574;28;20450;-70
2021/03/31 06:52:06;;;;;;;6.20;1.97;;;13.90;90.80;;;;;;5092125;28;20477;-70
2021/03/31 06:54:47;;;;;;;7.47;3.13;;;14.00;90.70;;;;;;5089851;28;20185;-68
2021/03/31 06:57:17;;;;;;;7.37;3.70;;;14.10;90.40;;;;;;5091167;28;20817;-70
2021/03/31 07:00:03;;;;;;;5.33;2.30;;;14.20;90.30;;;;;;5085497;28;20777;-68
2021/03/31 07:02:38;;;;;;;7.00;3.40;;;14.30;89.50;;;;;;5071450;28;20496;-69
2021/03/31 07:05:10;;;;;;;7.53;3.33;;;14.30;88.70;;;;;;5089301;28;20917;-69
2021/03/31 07:07:43;;;;;;;7.10;2.73;;;14.20;88.20;;;;;;5079583;28;20830;-67
2021/03/31 07:10:15;;;;;;;11.53;2.50;;;14.10;88.90;;;;;;5072313;28;20426;-68
2021/03/31 07:12:47;;;;;;;6.80;2.40;;;14.00;90.00;;;;;;5071307;28;20421;-69
2021/03/31 07:15:15;;;;;;;6.27;2.97;;;14.00;89.90;;;;;;5079978;28;20930;-69
2021/03/31 07:17:48;;;;;;;4.93;2.30;;;14.00;89.10;;;;;;5092714;28;20460;-68
2021/03/31 07:20:15;;;;;;;4.77;2.50;;;14.00;89.20;;;;;;5092749;28;20495;-68
2021/03/31 07:22:40;;;;;;;4.50;2.43;;;14.10;89.00;;;;;;5092866;28;20402;-69
2021/03/31 07:25:08;;;;;;;8.40;3.47;;;14.30;88.60;;;;;;5092437;28;20766;-68
2021/03/31 07:27:35;;;;;;;6.60;3.00;;;14.50;87.70;;;;;;5092609;28;20225;-68
2021/03/31 07:30:15;;;;;;;9.73;3.87;;;14.80;87.40;;;;;;5092913;28;20921;-67
2021/03/31 07:32:57;;;;;;;5.60;2.97;;;15.20;86.30;;;;;;5092910;28;20910;-68
2021/03/31 07:35:30;;;;;;;5.90;2.70;;;15.50;85.20;;;;;;5092149;28;20474;-67
2021/03/31 07:37:59;;;;;;;6.67;3.00;;;15.70;84.90;;;;;;5094878;28;20445;-69
2021/03/31 07:40:25;;;;;;;9.07;4.37;;;16.00;84.30;;;;;;5096542;28;20417;-70
2021/03/31 07:43:31;;;;;;;5.67;3.13;;;16.40;83.30;;;;;;5096405;28;20405;-68
2021/03/31 07:46:07;;;;;;;8.93;3.50;;;16.60;81.40;;;;;;5094917;28;20430;-69
2021/03/31 07:48:34;;;;;;;6.40;3.37;;;16.90;82.20;;;;;;5096430;28;20399;-70
2021/03/31 07:51:15;;;;;;;8.10;3.90;;;17.30;79.50;;;;;;5094810;28;20420;-69
2021/03/31 07:53:46;;;;;;;7.40;3.77;;;17.70;79.50;;;;;;5096351;28;20403;-66
2021/03/31 07:56:17;;;;;;;5.83;3.23;;;18.10;78.30;;;;;;5096414;28;20943;-69
2021/03/31 07:59:07;;;;;;;6.40;3.43;;;18.40;77.50;;;;;;5096068;28;20445;-69
2021/03/31 08:01:56;;;;;;;9.77;4.27;;;18.50;75.10;;;;;;5096454;28;20438;-69
2021/03/31 08:04:24;;;;;;;8.33;3.73;;;18.70;74.00;;;;;;5094414;28;20432;-68
2021/03/31 08:06:53;;;;;;;11.00;3.60;;;18.70;73.30;;;;;;5096167;28;20778;-67
2021/03/31 08:09:21;;;;;;;6.37;3.30;;;18.70;73.30;;;;;;5096376;28;20455;-70
2021/03/31 08:11:51;;;;;;;10.47;3.43;;;18.80;72.70;;;;;;5095823;28;20462;-68
2021/03/31 08:14:35;;;;;;;6.43;3.20;;;19.20;71.50;;;;;;5094040;28;20427;-68
2021/03/31 08:17:03;;;;;;;6.50;3.10;;;19.90;71.70;;;;;;5095825;28;20465;-68
2021/03/31 08:19:41;;;;;;;6.03;3.20;;;20.80;69.60;;;;;;5096058;28;20866;-69
2021/03/31 08:22:26;;;;;;;6.43;4.27;;;21.50;65.80;;;;;;5095414;28;20418;-69
2021/03/31 08:24:57;;;;;;;5.97;2.83;;;22.00;62.80;;;;;;5095390;28;20405;-69
2021/03/31 08:27:23;;;;;;;6.70;3.80;;;22.60;60.80;;;;;;5095864;28;20418;-70
2021/03/31 08:29:57;;;;;;;6.00;3.10;;;23.10;59.10;;;;;;5095405;28;20808;-69
2021/03/31 08:32:25;;;;;;;5.60;2.83;;;23.30;57.50;;;;;;5095680;28;20390;-69
2021/03/31 08:34:51;;;;;;;7.07;3.67;;;23.90;57.20;;;;;;5095306;28;20409;-69
2021/03/31 08:37:37;;;;;;;5.47;3.57;;;24.50;55.50;;;;;;5095479;28;20503;-68
2021/03/31 08:40:06;;;;;;;6.70;3.07;;;24.80;54.20;;;;;;5093823;28;20445;-69
2021/03/31 08:42:32;;;;;;;6.30;3.80;;;25.30;53.70;;;;;;5095569;28;20765;-69
2021/03/31 08:44:59;;;;;;;6.33;3.70;;;26.00;51.90;;;;;;5094685;28;20438;-70
2021/03/31 08:47:31;;;;;;;5.67;3.30;;;26.50;49.80;;;;;;5095424;28;20495;-72
2021/03/31 08:49:59;;;;;;;10.10;4.10;;;27.10;48.80;;;;;;5092786;28;20721;-68
2021/03/31 08:52:32;;;;;;;11.27;3.80;;;27.70;48.70;;;;;;5095475;28;20422;-70
2021/03/31 08:54:57;;;;;;;5.90;3.87;;;28.20;46.90;;;;;;5095132;28;20897;-70
2021/03/31 08:57:29;;;;;;;6.53;3.30;;;28.50;45.90;;;;;;5095293;28;20517;-70
2021/03/31 08:59:58;;;;;;;6.40;3.87;;;28.60;45.20;;;;;;5095219;28;20164;-69
2021/03/31 09:02:27;;;;;;;7.57;3.77;;;28.80;44.90;;;;;;5095165;28;20372;-69
2021/03/31 09:04:55;;;;;;;6.50;3.33;;;28.90;44.00;;;;;;5094902;28;20464;-69
2021/03/31 09:07:20;;;;;;;6.93;3.97;;;29.10;43.90;;;;;;5094736;28;20470;-71
2021/03/31 09:09:47;;;;;;;7.20;4.40;;;29.50;43.00;;;;;;5094964;28;20398;-70
2021/03/31 09:12:22;;;;;;;7.50;3.90;;;29.50;42.80;;;;;;5094929;28;20176;-70
2021/03/31 09:14:54;;;;;;;6.20;3.90;;;30.10;43.00;;;;;;5094591;28;20383;-69
2021/03/31 09:17:21;;;;;;;6.60;4.50;;;30.40;41.10;;;;;;5093381;28;20424;-71
2021/03/31 09:19:50;;;;;;;7.30;3.47;;;30.90;41.50;;;;;;5093246;28;20926;-71
2021/03/31 09:22:18;;;;;;;5.97;4.07;;;31.30;39.60;;;;;;5094967;28;20732;-71
2021/03/31 09:24:49;;;;;;;5.77;3.63;;;31.60;39.10;;;;;;5094375;28;20381;-71
2021/03/31 09:27:17;;;;;;;6.07;3.77;;;32.10;38.60;;;;;;5094484;28;20458;-71
2021/03/31 09:29:45;;;;;;;6.57;4.00;;;32.00;37.70;;;;;;5094691;28;20438;-71
2021/03/31 09:32:15;;;;;;;6.17;4.13;;;32.10;38.10;;;;;;5094475;28;20418;-71
2021/03/31 09:34:41;;;;;;;6.70;4.20;;;32.50;37.30;;;;;;5092631;28;20385;-70
2021/03/31 09:37:12;;;;;;;7.50;4.07;;;32.60;37.20;;;;;;5094445;28;20450;-71
2021/03/31 09:39:44;;;;;;;6.90;4.83;;;32.60;37.00;;;;;;5094564;28;20724;-72
2021/03/31 09:42:21;;;;;;;6.23;4.53;;;32.50;36.60;;;;;;5094295;28;20413;-71
2021/03/31 09:44:49;;;;;;;6.37;4.63;;;32.30;37.30;;;;;;5093450;28;20392;-72
2021/03/31 09:47:16;;;;;;;6.60;4.27;;;32.60;36.80;;;;;;5092839;28;20467;-72
2021/03/31 09:49:45;;;;;;;6.17;4.10;;;32.90;36.20;;;;;;5094127;28;20369;-72
2021/03/31 09:52:14;;;;;;;8.60;4.77;;;33.10;35.80;;;;;;5094279;28;20380;-71
2021/03/31 09:54:45;;;;;;;6.90;4.13;;;32.80;35.80;;;;;;5093857;28;20459;-70
2021/03/31 09:57:11;;;;;;;7.03;4.60;;;32.80;35.70;;;;;;5094216;28;20467;-70
2021/03/31 09:59:39;;;;;;;7.80;4.50;;;32.80;35.30;;;;;;5093749;28;20422;-71
2021/03/31 10:02:06;;;;;;;7.00;4.37;;;32.80;35.40;;;;;;5093965;28;20468;-69
2021/03/31 10:04:36;;;;;;;6.43;4.87;;;33.00;35.90;;;;;;5093760;28;20510;-71
2021/03/31 10:07:14;;;;;;;4.87;3.70;;;32.90;35.40;;;;;;5093932;28;20420;-72
2021/03/31 10:09:50;;;;;;;6.47;3.77;;;32.90;35.80;;;;;;5094041;28;20731;-71
2021/03/31 10:12:22;;;;;;;6.93;4.60;;;32.90;35.10;;;;;;5092358;28;20904;-71
2021/03/31 10:14:54;;;;;;;5.60;3.20;;;33.30;34.90;;;;;;5093566;28;20365;-71
2021/03/31 10:17:21;;;;;;;5.37;3.70;;;33.50;34.20;;;;;;5093606;28;20451;-70
2021/03/31 10:19:48;;;;;;;6.00;3.60;;;33.50;34.10;;;;;;5093827;28;20383;-70
2021/03/31 10:22:15;;;;;;;6.87;4.07;;;33.20;34.60;;;;;;5093834;28;20377;-72
2021/03/31 10:24:53;;;;;;;6.07;3.90;;;33.30;33.70;;;;;;5093233;28;20880;-69
2021/03/31 10:27:19;;;;;;;5.60;3.80;;;33.30;33.70;;;;;;5055118;28;20558;-70
2021/03/31 10:29:52;;;;;;;7.17;4.30;;;32.40;33.50;;;;;;5073488;28;20495;-70
2021/03/31 10:32:20;;;;;;;7.33;4.20;;;32.10;35.90;;;;;;5073624;28;20230;-70
2021/03/31 10:34:48;;;;;;;6.03;4.43;;;31.90;34.90;;;;;;5073025;28;20403;-72
2021/03/31 10:37:58;;;;;;;7.40;4.00;;;31.50;35.30;;;;;;5073474;28;20429;-70
2021/03/31 10:49:09;;;;;;;6.37;4.13;;;31.60;35.40;;;;;;5093000;28;20987;-70
2021/03/31 10:51:56;;;;;;;6.40;4.17;;;31.70;35.00;;;;;;5093390;28;20458;-71
2021/03/31 10:54:25;;;;;;;5.63;3.63;;;31.70;35.30;;;;;;5093418;28;20870;-72
2021/03/31 10:56:54;;;;;;;6.30;4.23;;;31.80;34.90;;;;;;5093325;28;20432;-70
2021/03/31 10:59:20;;;;;;;5.10;3.07;;;31.40;34.90;;;;;;5093218;28;20464;-71
2021/03/31 11:01:46;;;;;;;8.57;4.00;;;31.10;34.90;;;;;;5093361;28;20812;-70
2021/03/31 11:04:12;;;;;;;6.23;3.30;;;31.20;34.80;;;;;;5092571;28;20492;-69
2021/03/31 11:06:38;;;;;;;6.67;3.70;;;31.40;34.70;;;;;;5093103;28;20716;-70
2021/03/31 11:09:04;;;;;;;6.90;4.30;;;31.40;33.60;;;;;;5093099;28;20406;-69
2021/03/31 11:11:31;;;;;;;6.00;3.60;;;31.40;34.50;;;;;;5093028;28;20251;-71
2021/03/31 11:13:56;;;;;;;7.00;3.93;;;31.00;34.80;;;;;;5096215;28;20401;-71
2021/03/31 11:16:22;;;;;;;9.40;5.63;;;30.60;34.90;;;;;;5096930;28;20958;-70
2021/03/31 11:18:58;;;;;;;6.73;4.13;;;29.80;35.10;;;;;;5096972;28;20184;-69
2021/03/31 11:26:53;;;;;;;7.07;3.30;;;27.50;36.90;;;;;;5096730;28;20532;-71
2021/03/31 11:29:19;;;;;;;5.70;3.23;;;27.00;37.20;;;;;;5096999;28;20462;-71
2021/03/31 11:31:44;;;;;;;5.90;3.37;;;26.60;37.00;;;;;;5096903;28;20178;-71
2021/03/31 11:34:10;;;;;;;5.70;3.23;;;26.20;37.60;;;;;;5095135;28;20173;-72
2021/03/31 11:36:36;;;;;;;6.80;2.50;;;25.90;38.20;;;;;;5095448;28;21023;-71
2021/03/31 11:39:03;;;;;;;4.60;2.53;;;25.70;38.50;;;;;;5096383;28;20230;-70
2021/03/31 11:41:29;;;;;;;5.40;3.00;;;25.60;38.60;;;;;;5096793;28;20409;-71
2021/03/31 11:43:55;;;;;;;5.53;2.50;;;25.30;39.30;;;;;;5096164;28;20753;-70
2021/03/31 11:46:21;;;;;;;4.57;2.60;;;25.10;38.10;;;;;;5096186;28;20282;-71
2021/03/31 11:48:46;;;;;;;7.37;3.57;;;24.90;38.10;;;;;;5095284;28;20200;-71
2021/03/31 11:51:12;;;;;;;9.60;4.30;;;24.70;40.20;;;;;;5096448;28;20166;-71
2021/03/31 11:53:38;;;;;;;5.33;2.80;;;24.60;39.10;;;;;;5096098;28;20302;-71
2021/03/31 11:56:04;;;;;;;10.93;3.03;;;24.50;38.70;;;;;;5095946;28;20526;-72
2021/03/31 11:58:30;;;;;;;7.77;3.80;;;24.40;39.30;;;;;;5096306;28;20171;-72
2021/03/31 12:00:55;;;;;;;8.07;4.00;;;24.20;39.40;;;;;;5095964;28;20416;-71
2021/03/31 12:03:22;;;;;;;6.17;3.37;;;24.10;41.20;;;;;;5096260;28;20182;-70
2021/03/31 12:05:48;;;;;;;7.53;3.37;;;24.10;41.00;;;;;;5095834;28;20189;-72
2021/03/31 12:08:14;;;;;;;7.43;3.23;;;24.00;41.50;;;;;;5096052;28;20463;-71
2021/03/31 12:10:39;;;;;;;8.43;3.73;;;24.00;40.10;;;;;;5094639;28;20177;-71
2021/03/31 12:13:05;;;;;;;7.10;4.30;;;23.90;40.90;;;;;;5095807;28;20405;-72
2021/03/31 12:15:32;;;;;;;6.83;3.13;;;24.00;40.60;;;;;;5095702;28;20195;-73
2021/03/31 12:17:57;;;;;;;7.10;3.40;;;24.00;40.60;;;;;;5094474;28;20647;-73
2021/03/31 12:20:23;;;;;;;6.93;3.80;;;24.10;40.60;;;;;;5095964;28;20409;-72
2021/03/31 12:22:50;;;;;;;8.10;4.37;;;24.10;40.00;;;;;;5095863;28;20334;-72
2021/03/31 12:25:16;;;;;;;6.03;3.20;;;24.20;40.10;;;;;;5095164;28;20585;-73
2021/03/31 12:27:44;;;;;;;6.67;3.13;;;24.30;39.50;;;;;;5094438;28;20455;-73
2021/03/31 12:30:12;;;;;;;7.40;3.93;;;24.30;39.30;;;;;;5095881;28;20403;-69
2021/03/31 12:32:39;;;;;;;10.00;3.63;;;24.30;38.70;;;;;;5095843;28;20412;-72
2021/03/31 12:35:06;;;;;;;6.03;3.20;;;24.20;40.40;;;;;;5095472;28;20410;-73
2021/03/31 12:37:32;;;;;;;7.10;3.40;;;24.20;38.10;;;;;;5095479;28;20526;-73
2021/03/31 12:39:57;;;;;;;5.87;2.97;;;24.10;38.70;;;;;;5096006;28;20931;-73
2021/03/31 12:42:24;;;;;;;6.63;3.03;;;24.00;39.20;;;;;;5094228;28;20496;-75
2021/03/31 12:44:50;;;;;;;6.40;3.23;;;24.00;39.50;;;;;;5094762;28;20179;-73
2021/03/31 12:47:19;;;;;;;6.43;2.87;;;24.10;38.80;;;;;;5095130;28;20452;-71
2021/03/31 12:49:47;;;;;;;4.87;2.70;;;24.00;38.10;;;;;;5095444;28;20644;-73
2021/03/31 12:52:15;;;;;;;6.40;2.80;;;24.00;37.90;;;;;;5095075;28;20423;-71
2021/03/31 12:54:51;;;;;;;6.17;3.80;;;24.00;37.50;;;;;;5094835;28;20428;-72
2021/03/31 12:57:17;;;;;;;6.10;3.40;;;24.00;40.00;;;;;;5093755;28;20988;-72
2021/03/31 12:59:43;;;;;;;6.57;2.40;;;24.00;40.80;;;;;;5095240;28;20408;-73
2021/03/31 13:02:09;;;;;;;6.33;3.20;;;24.00;40.20;;;;;;5095369;28;20177;-72
2021/03/31 13:04:35;;;;;;;6.20;3.13;;;24.00;38.60;;;;;;5094502;28;20281;-72
2021/03/31 13:07:01;;;;;;;4.77;2.27;;;24.00;39.60;;;;;;5094924;28;20586;-72
2021/03/31 13:09:28;;;;;;;6.17;3.90;;;24.10;38.70;;;;;;5095005;28;20165;-72
2021/03/31 13:11:54;;;;;;;7.47;3.37;;;24.00;37.90;;;;;;5094549;28;20263;-73
2021/03/31 13:16:51;;;;;;;6.30;2.83;;;23.80;38.70;;;;;;5094592;28;20785;-73
2021/03/31 13:22:10;;;;;;;4.67;2.90;;;23.80;38.90;;;;;;5094061;28;20923;-72
2021/03/31 13:32:34;;;;;;;6.47;3.00;;;24.20;40.60;;;;;;5093782;28;20501;-73